createdAt,value
2022-10-17T00:02:33.528Z,7.12
2022-10-17T00:05:44.565Z,7.78
2022-10-17T00:08:47.145Z,7.12
2022-10-17T00:11:50.010Z,7.00
2022-10-17T00:14:52.558Z,6.62
2022-10-17T00:17:55.473Z,7.53
2022-10-17T00:20:58.122Z,6.97
2022-10-17T00:24:01.560Z,7.12
2022-10-17T00:27:04.282Z,7.35
2022-10-17T00:30:11.422Z,7.57
2022-10-17T00:33:13.995Z,6.72
2022-10-17T00:36:20.766Z,6.87
2022-10-17T00:39:23.494Z,7.07
2022-10-17T00:42:27.332Z,7.65
2022-10-17T00:45:31.407Z,7.03
2022-10-17T00:48:34.405Z,6.87
2022-10-17T00:52:02.045Z,7.85
2022-10-17T00:55:18.649Z,8.27
2022-10-17T00:58:21.588Z,6.70
2022-10-17T01:01:24.534Z,7.05
2022-10-17T01:04:27.664Z,6.80
2022-10-17T01:07:34.711Z,7.68
2022-10-17T01:10:55.271Z,7.10
2022-10-17T01:14:09.161Z,7.32
2022-10-17T01:17:39.864Z,7.57
2022-10-17T01:21:11.884Z,7.62
2022-10-17T01:24:42.273Z,6.70
2022-10-17T01:28:03.490Z,7.35
2022-10-17T01:31:37.781Z,7.75
2022-10-17T01:34:58.385Z,7.78
2022-10-17T01:38:18.632Z,7.60
2022-10-17T01:41:35.970Z,7.47
2022-10-17T01:44:57.182Z,8.05
2022-10-17T01:48:05.966Z,8.10
2022-10-17T01:51:14.669Z,7.35
2022-10-17T01:54:42.676Z,8.05
2022-10-17T01:57:51.106Z,8.57
2022-10-17T02:00:56.614Z,8.90
2022-10-17T02:04:02.337Z,8.98
2022-10-17T02:07:09.738Z,8.65
2022-10-17T02:10:25.870Z,7.60
2022-10-17T02:13:47.192Z,8.70
2022-10-17T02:16:55.990Z,8.35
2022-10-17T02:20:20.266Z,7.82
2022-10-17T02:23:56.345Z,8.07
2022-10-17T02:27:14.857Z,8.18
2022-10-17T02:30:29.562Z,8.75
2022-10-17T02:33:40.815Z,8.02
2022-10-17T02:36:52.022Z,8.05
2022-10-17T02:39:57.727Z,8.57
2022-10-17T02:43:03.514Z,8.20
2022-10-17T02:46:08.188Z,8.75
2022-10-17T02:49:30.909Z,7.65
2022-10-17T02:52:53.126Z,8.35
2022-10-17T02:56:00.326Z,8.50
2022-10-17T02:59:06.162Z,8.95
2022-10-17T03:02:08.761Z,8.60
2022-10-17T03:05:13.822Z,8.40
2022-10-17T03:08:16.425Z,9.25
2022-10-17T03:11:19.287Z,8.98
2022-10-17T03:14:21.902Z,9.02
2022-10-17T03:17:24.958Z,9.68
2022-10-17T03:20:28.167Z,7.93
2022-10-17T03:23:30.957Z,8.90
2022-10-17T03:26:33.773Z,8.57
2022-10-17T03:29:37.307Z,7.68
2022-10-17T03:32:40.469Z,8.30
2022-10-17T03:35:44.150Z,8.27
2022-10-17T03:38:48.083Z,8.45
2022-10-17T03:41:51.864Z,9.48
2022-10-17T03:44:54.438Z,8.30
2022-10-17T03:48:01.413Z,8.20
2022-10-17T03:51:07.991Z,8.65
2022-10-17T03:54:12.472Z,8.30
2022-10-17T03:57:15.186Z,8.98
2022-10-17T04:00:18.401Z,9.00
2022-10-17T04:03:25.441Z,8.25
2022-10-17T04:06:27.952Z,8.02
2022-10-17T04:09:30.896Z,8.32
2022-10-17T04:12:33.799Z,8.25
2022-10-17T04:15:36.658Z,8.35
2022-10-17T04:18:40.472Z,9.00
2022-10-17T04:21:43.342Z,8.38
2022-10-17T04:24:45.921Z,8.88
2022-10-17T04:27:49.377Z,8.65
2022-10-17T04:31:03.529Z,8.63
2022-10-17T04:34:07.459Z,8.60
2022-10-17T04:37:10.398Z,9.00
2022-10-17T04:40:13.543Z,9.50
2022-10-17T04:43:16.438Z,8.80
2022-10-17T04:46:20.624Z,9.48
2022-10-17T04:49:23.583Z,8.32
2022-10-17T04:52:28.114Z,8.82
2022-10-17T04:55:30.914Z,8.73
2022-10-17T04:58:33.813Z,8.63
2022-10-17T05:01:36.515Z,8.93
2022-10-17T05:04:39.567Z,9.45
2022-10-17T05:07:42.597Z,9.15
2022-10-17T05:10:46.355Z,10.27
2022-10-17T05:13:54.492Z,8.70
2022-10-17T05:16:57.904Z,9.52
2022-10-17T05:20:00.998Z,9.40
2022-10-17T05:23:05.110Z,10.02
2022-10-17T05:26:09.961Z,9.95
2022-10-17T05:29:13.265Z,9.50
2022-10-17T05:32:16.728Z,9.55
2022-10-17T05:35:20.025Z,9.80
2022-10-17T05:38:23.174Z,10.65
2022-10-17T05:41:26.229Z,11.48
2022-10-17T05:44:29.186Z,9.70
2022-10-17T05:47:32.662Z,9.85
2022-10-17T05:50:36.292Z,9.32
2022-10-17T05:53:41.812Z,10.45
2022-10-17T05:56:46.001Z,9.95
2022-10-17T05:59:49.977Z,9.60
2022-10-17T06:02:53.932Z,10.70
2022-10-17T06:06:07.410Z,10.48
2022-10-17T06:09:10.964Z,10.48
2022-10-17T06:12:14.158Z,10.75
2022-10-17T06:15:17.468Z,10.13
2022-10-17T06:18:23.611Z,10.35
2022-10-17T06:21:27.609Z,10.45
2022-10-17T06:24:31.545Z,11.07
2022-10-17T06:27:37.863Z,10.57
2022-10-17T06:30:41.879Z,11.23
2022-10-17T06:33:44.661Z,10.98
2022-10-17T06:36:49.539Z,9.80
2022-10-17T06:39:53.543Z,10.68
2022-10-17T06:42:57.559Z,10.45
2022-10-17T06:46:00.344Z,10.75
2022-10-17T06:49:05.273Z,10.85
2022-10-17T06:52:13.197Z,10.45
2022-10-17T06:55:19.588Z,11.57
2022-10-17T06:58:25.569Z,10.73
2022-10-17T07:01:31.575Z,9.60
2022-10-17T07:04:34.613Z,11.68
2022-10-17T07:07:43.071Z,9.45
2022-10-17T07:10:48.424Z,9.68
2022-10-17T07:13:51.407Z,10.05
2022-10-17T07:16:54.270Z,9.52
2022-10-17T07:19:58.424Z,9.77
2022-10-17T07:23:01.712Z,9.10
2022-10-17T08:47:20.887Z,6.65
2022-10-17T08:50:36.507Z,6.97
2022-10-17T08:54:15.096Z,6.10
2022-10-17T08:57:26.888Z,6.93
2022-10-17T09:01:24.400Z,5.95
2022-10-17T09:05:16.388Z,6.50
2022-10-17T09:08:32.041Z,6.07
2022-10-17T09:11:41.979Z,5.55
2022-10-17T09:18:27.789Z,6.40
2022-10-17T09:21:47.596Z,6.78
2022-10-17T09:24:57.363Z,5.70
2022-10-17T09:28:23.704Z,5.73
2022-10-17T09:31:34.972Z,5.47
2022-10-17T09:34:56.938Z,5.47
2022-10-17T09:38:23.244Z,5.45
2022-10-17T09:41:47.231Z,5.55
2022-10-17T09:45:26.097Z,4.55
2022-10-17T09:49:19.961Z,5.75
2022-10-17T09:52:35.253Z,5.07
2022-10-17T09:55:43.670Z,5.25
2022-10-17T09:58:54.554Z,4.83
2022-10-17T10:02:21.776Z,5.55
2022-10-17T10:05:24.877Z,4.75
2022-10-17T10:08:31.281Z,4.97
2022-10-17T10:12:17.868Z,5.10
2022-10-17T10:15:44.365Z,4.97
2022-10-17T10:18:50.139Z,5.22
2022-10-17T10:21:59.534Z,4.90
2022-10-17T10:25:13.820Z,4.65
2022-10-17T10:28:17.748Z,6.45
2022-10-17T10:31:28.524Z,4.93
2022-10-17T10:34:32.763Z,5.12
2022-10-17T10:37:46.303Z,4.85
2022-10-17T10:40:53.182Z,4.60
2022-10-17T10:43:57.690Z,4.32
2022-10-17T10:47:22.982Z,5.37
2022-10-17T10:50:44.400Z,4.60
2022-10-17T10:54:10.834Z,5.25
2022-10-17T10:57:20.827Z,5.20
2022-10-17T11:00:27.862Z,5.28
2022-10-17T11:03:50.355Z,5.05
2022-10-17T11:10:56.455Z,4.82
2022-10-17T11:14:14.575Z,4.40
2022-10-17T11:17:35.823Z,3.45
2022-10-17T11:20:58.230Z,4.12
2022-10-17T11:24:17.847Z,3.87
2022-10-17T11:27:40.471Z,3.70
2022-10-17T11:31:07.079Z,3.80
2022-10-17T11:34:21.039Z,3.60
2022-10-17T11:37:40.244Z,3.92
2022-10-17T11:40:55.381Z,3.15
2022-10-17T11:44:21.202Z,3.75
2022-10-17T11:47:49.508Z,3.72
2022-10-17T11:54:45.805Z,3.80
2022-10-17T11:58:12.726Z,3.35
2022-10-17T12:01:30.396Z,3.47
2022-10-17T12:04:52.987Z,3.20
2022-10-17T12:08:13.526Z,3.60
2022-10-17T12:11:50.717Z,3.33
2022-10-17T12:14:54.005Z,3.92
2022-10-17T12:17:57.062Z,3.67
2022-10-17T12:21:01.147Z,3.55
2022-10-17T12:24:04.586Z,4.00
2022-10-17T12:27:46.124Z,3.50
2022-10-17T12:30:52.809Z,5.28
2022-10-17T12:34:00.608Z,3.50
2022-10-17T12:37:03.673Z,3.22
2022-10-17T12:40:35.168Z,3.22
2022-10-17T12:43:47.364Z,3.10
2022-10-17T12:46:51.016Z,4.25
2022-10-17T12:49:56.633Z,3.40
2022-10-17T12:53:07.190Z,3.00
2022-10-17T12:56:10.246Z,3.25
2022-10-17T12:59:26.074Z,3.37
2022-10-17T13:02:31.473Z,3.12
2022-10-17T13:05:42.483Z,3.53
2022-10-17T13:09:29.549Z,3.40
2022-10-17T13:12:41.219Z,3.22
2022-10-17T13:15:53.915Z,3.10
2022-10-17T13:18:58.513Z,3.15
2022-10-17T13:22:06.845Z,2.85
2022-10-17T13:25:18.896Z,2.87
2022-10-17T13:28:21.907Z,3.05
2022-10-17T13:31:33.540Z,5.12
2022-10-17T13:34:36.442Z,3.40
2022-10-17T13:37:43.988Z,3.03
2022-10-17T13:41:16.881Z,3.10
2022-10-17T13:44:30.536Z,3.53
2022-10-17T13:48:23.735Z,2.67
2022-10-17T13:51:52.688Z,3.53
2022-10-17T13:55:05.775Z,3.20
2022-10-17T13:58:17.769Z,2.92
2022-10-17T14:01:21.823Z,3.17
2022-10-17T14:04:24.853Z,3.28
2022-10-17T14:08:10.157Z,3.25
2022-10-17T14:11:30.714Z,3.10
2022-10-17T14:14:46.393Z,3.85
2022-10-17T14:17:58.123Z,2.90
2022-10-17T14:24:24.416Z,2.90
2022-10-17T14:27:38.127Z,2.97
2022-10-17T14:30:56.643Z,2.87
2022-10-17T14:34:01.791Z,2.75
2022-10-17T14:37:27.420Z,2.70
2022-10-17T14:40:32.809Z,2.95
2022-10-17T14:43:35.874Z,2.87
2022-10-17T14:46:48.461Z,2.72
2022-10-17T14:50:23.661Z,2.80
2022-10-17T14:53:30.102Z,2.83
2022-10-17T14:56:41.562Z,2.92
2022-10-17T14:59:59.655Z,3.15
2022-10-17T15:03:02.582Z,3.10
2022-10-17T15:06:20.635Z,3.15
2022-10-17T15:09:24.016Z,4.85
2022-10-17T15:12:26.849Z,4.32
2022-10-17T15:15:31.710Z,4.32
2022-10-17T15:18:34.324Z,2.78
2022-10-17T15:21:41.814Z,2.80
2022-10-17T15:24:49.309Z,3.33
2022-10-17T15:27:53.373Z,3.25
2022-10-17T15:30:56.103Z,3.00
2022-10-17T15:33:59.017Z,3.58
2022-10-17T15:37:01.818Z,2.90
2022-10-17T15:40:06.306Z,2.80
2022-10-17T15:43:09.683Z,3.15
2022-10-17T15:46:20.066Z,2.87
2022-10-17T15:49:22.852Z,3.17
2022-10-17T15:52:26.195Z,2.70
2022-10-17T15:55:29.050Z,3.37
2022-10-17T15:58:52.749Z,2.78
2022-10-17T16:01:58.292Z,3.50
2022-10-17T16:05:01.894Z,3.65
2022-10-17T16:08:24.589Z,3.40
2022-10-17T16:11:27.387Z,4.53
2022-10-17T16:14:32.410Z,3.58
2022-10-17T16:17:35.379Z,4.18
2022-10-17T16:20:40.194Z,3.75
2022-10-17T16:23:44.088Z,4.18
2022-10-17T16:26:46.704Z,3.75
2022-10-17T16:29:49.673Z,3.80
2022-10-17T16:32:53.814Z,3.83
2022-10-17T16:35:56.828Z,3.92
2022-10-17T16:38:59.581Z,4.15
2022-10-17T16:42:02.454Z,3.35
2022-10-17T16:45:05.770Z,3.78
2022-10-17T16:48:09.766Z,4.12
2022-10-17T16:51:14.031Z,4.80
2022-10-17T16:54:17.046Z,4.43
2022-10-17T16:57:20.390Z,5.55
2022-10-17T17:00:23.410Z,4.80
2022-10-17T17:03:26.150Z,4.72
2022-10-17T17:06:29.569Z,4.82
2022-10-17T17:09:32.348Z,6.07
2022-10-17T17:12:36.457Z,5.43
2022-10-17T17:15:54.363Z,5.25
2022-10-17T17:22:12.845Z,5.90
2022-10-17T17:25:15.859Z,4.47
2022-10-17T17:28:18.600Z,5.37
2022-10-17T17:31:25.419Z,5.20
2022-10-17T17:34:28.025Z,5.43
2022-10-17T17:37:31.347Z,4.95
2022-10-17T17:40:36.967Z,5.22
2022-10-17T17:43:41.003Z,5.68
2022-10-17T17:46:43.782Z,9.32
2022-10-17T17:49:47.061Z,8.38
2022-10-17T17:52:51.186Z,8.18
2022-10-17T17:56:04.834Z,6.97
2022-10-17T17:59:07.642Z,6.65
2022-10-17T18:02:11.206Z,7.22
2022-10-17T18:05:14.206Z,8.07
2022-10-17T18:08:16.828Z,6.95
2022-10-17T18:11:22.066Z,7.43
2022-10-17T18:14:25.611Z,9.15
2022-10-17T18:17:28.502Z,6.18
2022-10-17T18:20:31.724Z,6.28
2022-10-17T18:23:42.000Z,6.25
2022-10-17T18:26:44.623Z,9.23
2022-10-17T18:29:47.622Z,8.50
2022-10-17T18:32:50.179Z,7.07
2022-10-17T18:35:55.987Z,7.93
2022-10-17T18:39:01.498Z,10.85
2022-10-17T18:42:04.517Z,13.43
2022-10-17T18:45:07.925Z,7.65
2022-10-17T18:48:10.858Z,6.78
2022-10-17T18:51:16.748Z,5.55
2022-10-17T18:54:22.206Z,6.82
2022-10-17T18:57:26.229Z,6.15
2022-10-17T19:00:30.405Z,6.10
2022-10-17T19:03:33.104Z,5.70
2022-10-17T19:06:36.385Z,5.78
2022-10-17T19:13:11.741Z,7.10
2022-10-17T19:16:19.828Z,6.37
2022-10-17T19:19:25.689Z,6.47
2022-10-17T19:22:30.378Z,6.87
2022-10-17T19:25:33.799Z,7.00
2022-10-17T19:28:38.894Z,6.87
2022-10-17T19:31:42.236Z,6.75
2022-10-17T19:34:45.431Z,7.07
2022-10-17T19:37:48.098Z,7.40
2022-10-17T19:40:52.155Z,7.35
2022-10-17T19:43:54.907Z,7.30
2022-10-17T19:46:57.788Z,6.65
2022-10-17T19:50:00.577Z,7.75
2022-10-17T19:53:03.550Z,6.60
2022-10-17T19:56:06.684Z,7.25
2022-10-17T19:59:12.763Z,6.85
2022-10-17T20:02:15.541Z,7.43
2022-10-17T20:05:19.316Z,6.82
2022-10-17T20:08:23.370Z,6.75
2022-10-17T20:11:28.298Z,6.53
2022-10-17T20:14:30.823Z,6.37
2022-10-17T20:20:37.991Z,6.65
2022-10-17T20:23:41.199Z,7.90
2022-10-17T20:26:44.538Z,6.43
2022-10-17T20:29:47.798Z,6.43
2022-10-17T20:32:55.252Z,6.25
2022-10-17T20:35:58.350Z,6.45
2022-10-17T20:39:00.893Z,7.03
2022-10-17T20:42:03.791Z,7.30
2022-10-17T20:45:07.222Z,6.85
2022-10-17T20:48:15.541Z,6.47
2022-10-17T20:51:18.310Z,6.80
2022-10-17T20:54:22.371Z,7.00
2022-10-17T20:57:24.960Z,7.40
2022-10-17T21:00:27.801Z,6.57
2022-10-17T21:03:30.378Z,7.72
2022-10-17T21:06:33.366Z,7.68
2022-10-17T21:09:36.001Z,7.65
2022-10-17T21:12:53.053Z,7.90
2022-10-17T21:15:56.155Z,7.57
2022-10-17T21:18:59.976Z,7.55
2022-10-17T21:22:02.533Z,8.05
2022-10-17T21:25:06.116Z,7.85
2022-10-17T21:28:08.625Z,7.62
2022-10-17T21:31:14.496Z,7.60
2022-10-17T21:34:21.012Z,7.72
2022-10-17T21:37:23.907Z,7.87
2022-10-17T21:40:26.732Z,7.60
2022-10-17T21:43:29.529Z,6.97
2022-10-17T21:46:32.897Z,7.65
2022-10-17T21:49:35.882Z,7.70
2022-10-17T21:52:38.543Z,6.90
2022-10-17T21:55:41.376Z,7.65
2022-10-17T21:58:44.851Z,8.30
2022-10-17T22:01:47.941Z,7.10
2022-10-17T22:04:51.003Z,7.05
2022-10-17T22:07:53.517Z,8.52
2022-10-17T22:10:58.627Z,7.60
2022-10-17T22:14:05.430Z,7.30
2022-10-17T22:17:08.312Z,7.03
2022-10-17T22:20:13.923Z,7.60
2022-10-17T22:23:16.815Z,7.95
2022-10-17T22:26:19.444Z,7.18
2022-10-17T22:29:22.397Z,7.32
2022-10-17T22:32:24.975Z,7.37
2022-10-17T22:35:27.818Z,7.68
2022-10-17T22:38:30.695Z,8.15
2022-10-17T22:41:33.706Z,8.10
2022-10-17T22:44:36.261Z,7.95
2022-10-17T22:47:39.176Z,7.75
2022-10-17T22:50:41.869Z,8.38
2022-10-17T22:53:44.758Z,7.68
2022-10-17T22:56:47.279Z,8.23
2022-10-17T22:59:50.117Z,7.78
2022-10-17T23:02:56.084Z,8.20
2022-10-17T23:05:59.585Z,7.57
2022-10-17T23:09:02.214Z,8.38
2022-10-17T23:12:05.212Z,8.45
2022-10-17T23:15:08.443Z,8.05
2022-10-17T23:18:11.397Z,8.10
2022-10-17T23:21:14.123Z,7.78
2022-10-17T23:24:17.221Z,9.10
2022-10-17T23:27:19.781Z,8.60
2022-10-17T23:30:25.607Z,7.87
2022-10-17T23:33:28.283Z,8.38
2022-10-17T23:39:34.676Z,8.40
2022-10-17T23:42:37.569Z,9.43
2022-10-17T23:48:48.152Z,9.50
2022-10-17T23:51:50.830Z,9.45
2022-10-17T23:54:53.971Z,9.13
2022-10-17T23:57:56.641Z,9.02
